Weather at Charlotte Douglas International Airport

Public forecast

Using degrees Fahrenheit for public forecast. Weather courtesy of forecast.io.

Current aviation weather report (METAR) for Charlotte Douglas International Airport

Retrieved 2021/10/22 04:52 UTC (1 hour ago):

KCLT 220452Z 21008KT 10SM FEW034 SCT043 BKN070 OVC250 20/17 A3002 RMK AO2 SLP159 T02000167 402720117

Aviation forecast (TAF) for Charlotte Douglas International Airport

Retrieved 2021-10-22 00:42 UTC (5 hours ago):

TAF KCLT 212340Z 2200/2306 21010KT P6SM BKN045 BKN080 FM220400 21008G15KT P6SM SCT030 BKN060 FM221300 24008KT P6SM SCT250 FM230200 32004KT P6SM FEW200